createdAt,value
2023-02-11T00:14:45.826Z,101684.91
2023-02-11T00:29:48.004Z,101668.28
2023-02-11T00:44:49.857Z,101662.03
2023-02-11T00:59:51.721Z,101657.22
2023-02-11T01:14:53.569Z,101633.38
2023-02-11T01:29:55.791Z,101646.31
2023-02-11T01:44:58.491Z,101634.47
2023-02-11T02:00:24.416Z,101641.38
2023-02-11T02:15:30.457Z,101640.34
2023-02-11T02:30:44.426Z,101624.09
2023-02-11T02:45:46.221Z,101630.13
2023-02-11T03:01:30.027Z,101625.78
2023-02-11T03:16:39.204Z,101607.66
2023-02-11T03:32:01.889Z,101627.53
2023-02-11T03:47:07.483Z,101623.34
2023-02-11T04:02:09.133Z,101631.75
2023-02-11T04:17:12.203Z,101612.44
2023-02-11T04:32:16.889Z,101601.38
2023-02-11T04:47:19.142Z,101591.50
2023-02-11T05:02:21.013Z,101607.44
2023-02-11T05:17:22.839Z,101606.47
2023-02-11T05:32:25.358Z,101603.84
2023-02-11T05:47:27.319Z,101605.09
2023-02-11T06:02:29.198Z,101593.16
2023-02-11T06:17:33.753Z,101588.81
2023-02-11T06:32:44.420Z,101585.06
2023-02-11T06:47:47.177Z,101591.78
2023-02-11T07:02:49.055Z,101587.34
2023-02-11T07:17:50.898Z,101553.38
2023-02-11T07:32:53.303Z,101536.28
2023-02-11T07:47:55.079Z,101530.47
2023-02-11T08:02:59.902Z,101517.19
2023-02-11T08:18:01.709Z,101511.44
2023-02-11T08:33:04.162Z,101508.22
2023-02-11T08:48:06.118Z,101487.66
2023-02-11T09:03:07.923Z,101479.97
2023-02-11T09:18:10.126Z,101460.41
2023-02-11T09:33:12.326Z,101448.00
2023-02-11T09:48:24.057Z,101423.81
2023-02-11T10:03:41.036Z,101407.13
2023-02-11T10:18:59.743Z,101401.22
2023-02-11T10:34:11.326Z,101400.06
2023-02-11T10:49:35.014Z,101378.69
2023-02-11T11:04:42.631Z,101335.19
2023-02-11T11:19:44.558Z,101313.19
2023-02-11T11:34:56.324Z,101294.53
2023-02-11T11:50:21.198Z,101267.31
2023-02-11T12:05:33.084Z,101268.22
2023-02-11T12:20:37.556Z,101252.34
2023-02-11T12:35:53.664Z,101251.31
2023-02-11T12:51:00.138Z,101241.44
2023-02-11T13:06:20.600Z,101243.69
2023-02-11T13:21:30.297Z,101232.84
2023-02-11T13:36:33.879Z,101206.34
2023-02-11T13:51:42.421Z,101194.34
2023-02-11T14:07:41.050Z,101183.25
2023-02-11T14:22:50.361Z,101151.69
2023-02-11T14:38:13.307Z,101142.81
2023-02-11T14:53:18.699Z,101133.31
2023-02-11T15:08:20.563Z,101122.56
2023-02-11T15:23:26.819Z,101113.44
2023-02-11T15:38:30.510Z,101109.56
2023-02-11T15:53:40.616Z,101101.44
2023-02-11T16:08:43.357Z,101097.97
2023-02-11T16:23:55.123Z,101089.75
2023-02-11T16:38:57.150Z,101083.59
2023-02-11T16:53:58.950Z,101057.00
2023-02-11T17:09:00.979Z,101030.16
2023-02-11T17:24:02.833Z,101011.03
2023-02-11T17:39:08.140Z,100997.38
2023-02-11T17:54:16.970Z,100968.78
2023-02-11T18:09:18.792Z,100980.22
2023-02-11T18:24:20.675Z,100956.41
2023-02-11T18:39:24.742Z,100933.16
2023-02-11T18:54:26.722Z,100917.38
2023-02-11T19:09:28.538Z,100887.28
2023-02-11T19:24:30.941Z,100866.16
2023-02-11T19:39:33.464Z,100852.31
2023-02-11T19:54:35.390Z,100831.16
2023-02-11T20:09:37.532Z,100825.03
2023-02-11T20:24:39.351Z,100801.84
2023-02-11T20:39:42.717Z,100779.47
2023-02-11T20:54:44.552Z,100755.88
2023-02-11T21:09:46.381Z,100760.38
2023-02-11T21:24:48.390Z,100749.84
2023-02-11T21:39:51.253Z,100728.22
2023-02-11T21:54:53.091Z,100728.75
2023-02-11T22:09:55.838Z,100704.31
2023-02-11T22:25:00.206Z,100674.56
2023-02-11T22:40:03.910Z,100672.59
2023-02-11T22:55:07.191Z,100670.25
2023-02-11T23:10:09.921Z,100638.13
2023-02-11T23:25:11.741Z,100619.13
2023-02-11T23:40:14.439Z,100589.50
2023-02-11T23:55:16.290Z,100556.25
